Weather at Arnold Palmer Regional Airport

Public forecast

Using degrees Fahrenheit for public forecast. Weather courtesy of forecast.io.

Current aviation weather report (METAR) for Arnold Palmer Regional Airport

Retrieved 2022/01/17 03:35 UTC (12 minutes ago):

KLBE 170335Z AUTO 34007KT 10SM OVC019 M04/M05 A2939 RMK AO2

Aviation forecast (TAF) for Arnold Palmer Regional Airport

Retrieved 2022-01-17 00:22 UTC (3 hours ago):

TAF KLBE 162320Z 1700/1724 03005KT 1SM -SN OVC020 WS020/12040KT FM170200 07010G19KT 1SM -SN OVC015 WS020/11045KT FM170600 02005KT 2SM -SN OVC007 FM171200 28012G22KT 1SM -SN OVC007 FM171700 29015G29KT 2SM -SHSN OVC015